sensor_id;sensor_type;location;lat;lon;timestamp;P1;durP1;ratioP1;P2;durP2;ratioP2
33987;SDS011;37428;53.580;-1.666;2023-02-24T00:00:20;17.58;;;6.30;;
33987;SDS011;37428;53.580;-1.666;2023-02-24T00:03:32;12.98;;;5.55;;
33987;SDS011;37428;53.580;-1.666;2023-02-24T00:06:36;11.93;;;5.68;;
33987;SDS011;37428;53.580;-1.666;2023-02-24T00:09:40;12.65;;;6.65;;
33987;SDS011;37428;53.580;-1.666;2023-02-24T00:12:45;18.25;;;7.25;;
33987;SDS011;37428;53.580;-1.666;2023-02-24T00:15:57;15.00;;;7.68;;
33987;SDS011;37428;53.580;-1.666;2023-02-24T00:22:03;15.65;;;7.60;;
33987;SDS011;37428;53.580;-1.666;2023-02-24T00:25:07;10.70;;;6.22;;
33987;SDS011;37428;53.580;-1.666;2023-02-24T00:28:12;8.93;;;6.18;;
33987;SDS011;37428;53.580;-1.666;2023-02-24T00:31:20;15.98;;;8.00;;
33987;SDS011;37428;53.580;-1.666;2023-02-24T00:34:24;12.82;;;6.95;;
33987;SDS011;37428;53.580;-1.666;2023-02-24T00:40:28;10.10;;;5.97;;
33987;SDS011;37428;53.580;-1.666;2023-02-24T00:43:37;15.05;;;5.88;;
33987;SDS011;37428;53.580;-1.666;2023-02-24T00:46:41;9.70;;;6.03;;
33987;SDS011;37428;53.580;-1.666;2023-02-24T00:49:44;9.07;;;5.47;;
33987;SDS011;37428;53.580;-1.666;2023-02-24T00:52:49;10.50;;;5.85;;
33987;SDS011;37428;53.580;-1.666;2023-02-24T00:55:57;11.13;;;5.72;;
33987;SDS011;37428;53.580;-1.666;2023-02-24T00:59:01;9.02;;;5.28;;
33987;SDS011;37428;53.580;-1.666;2023-02-24T01:02:04;5.80;;;4.40;;
33987;SDS011;37428;53.580;-1.666;2023-02-24T01:05:07;6.93;;;5.18;;
33987;SDS011;37428;53.580;-1.666;2023-02-24T01:08:11;7.82;;;4.68;;
33987;SDS011;37428;53.580;-1.666;2023-02-24T01:11:22;5.22;;;4.32;;
33987;SDS011;37428;53.580;-1.666;2023-02-24T01:14:52;5.22;;;4.05;;
33987;SDS011;37428;53.580;-1.666;2023-02-24T01:17:54;7.20;;;4.15;;
33987;SDS011;37428;53.580;-1.666;2023-02-24T01:20:58;5.28;;;3.70;;
33987;SDS011;37428;53.580;-1.666;2023-02-24T01:24:00;4.78;;;3.47;;
33987;SDS011;37428;53.580;-1.666;2023-02-24T01:27:03;5.57;;;3.95;;
33987;SDS011;37428;53.580;-1.666;2023-02-24T01:30:08;6.72;;;4.13;;
33987;SDS011;37428;53.580;-1.666;2023-02-24T01:33:14;11.32;;;5.32;;
33987;SDS011;37428;53.580;-1.666;2023-02-24T01:36:18;7.20;;;5.32;;
33987;SDS011;37428;53.580;-1.666;2023-02-24T01:39:22;7.75;;;4.70;;
33987;SDS011;37428;53.580;-1.666;2023-02-24T01:42:25;10.52;;;5.18;;
33987;SDS011;37428;53.580;-1.666;2023-02-24T01:45:29;5.38;;;4.40;;
33987;SDS011;37428;53.580;-1.666;2023-02-24T01:48:35;5.80;;;4.90;;
33987;SDS011;37428;53.580;-1.666;2023-02-24T01:51:38;8.88;;;4.47;;
33987;SDS011;37428;53.580;-1.666;2023-02-24T01:54:44;4.75;;;3.72;;
33987;SDS011;37428;53.580;-1.666;2023-02-24T01:57:50;5.90;;;4.22;;
33987;SDS011;37428;53.580;-1.666;2023-02-24T02:00:55;9.88;;;4.47;;
33987;SDS011;37428;53.580;-1.666;2023-02-24T02:03:58;6.30;;;4.13;;
33987;SDS011;37428;53.580;-1.666;2023-02-24T02:07:06;5.53;;;5.03;;
33987;SDS011;37428;53.580;-1.666;2023-02-24T02:10:11;7.78;;;4.60;;
33987;SDS011;37428;53.580;-1.666;2023-02-24T02:13:15;8.25;;;4.80;;
33987;SDS011;37428;53.580;-1.666;2023-02-24T02:16:28;12.55;;;4.30;;
33987;SDS011;37428;53.580;-1.666;2023-02-24T02:19:58;12.20;;;5.18;;
33987;SDS011;37428;53.580;-1.666;2023-02-24T02:23:30;7.68;;;4.07;;
33987;SDS011;37428;53.580;-1.666;2023-02-24T02:26:56;9.85;;;5.50;;
33987;SDS011;37428;53.580;-1.666;2023-02-24T02:30:33;10.50;;;4.82;;
33987;SDS011;37428;53.580;-1.666;2023-02-24T02:37:20;11.73;;;4.85;;
33987;SDS011;37428;53.580;-1.666;2023-02-24T02:40:31;13.98;;;4.75;;
33987;SDS011;37428;53.580;-1.666;2023-02-24T02:43:38;10.27;;;4.85;;
33987;SDS011;37428;53.580;-1.666;2023-02-24T02:46:52;9.18;;;4.72;;
33987;SDS011;37428;53.580;-1.666;2023-02-24T02:50:00;10.43;;;5.13;;
33987;SDS011;37428;53.580;-1.666;2023-02-24T02:53:11;12.87;;;5.37;;
33987;SDS011;37428;53.580;-1.666;2023-02-24T02:56:18;15.60;;;5.25;;
33987;SDS011;37428;53.580;-1.666;2023-02-24T02:59:25;10.50;;;5.05;;
33987;SDS011;37428;53.580;-1.666;2023-02-24T03:02:29;10.05;;;4.13;;
33987;SDS011;37428;53.580;-1.666;2023-02-24T03:05:41;11.73;;;4.55;;
33987;SDS011;37428;53.580;-1.666;2023-02-24T03:08:48;19.98;;;5.80;;
33987;SDS011;37428;53.580;-1.666;2023-02-24T03:11:57;18.55;;;5.03;;
33987;SDS011;37428;53.580;-1.666;2023-02-24T03:15:07;12.52;;;5.47;;
33987;SDS011;37428;53.580;-1.666;2023-02-24T03:18:14;12.65;;;4.57;;
33987;SDS011;37428;53.580;-1.666;2023-02-24T03:21:23;16.67;;;4.85;;
33987;SDS011;37428;53.580;-1.666;2023-02-24T03:24:32;16.63;;;4.10;;
33987;SDS011;37428;53.580;-1.666;2023-02-24T03:27:39;16.73;;;3.97;;
33987;SDS011;37428;53.580;-1.666;2023-02-24T03:30:47;13.90;;;3.40;;
33987;SDS011;37428;53.580;-1.666;2023-02-24T03:33:59;13.38;;;3.55;;
33987;SDS011;37428;53.580;-1.666;2023-02-24T03:37:07;17.70;;;3.80;;
33987;SDS011;37428;53.580;-1.666;2023-02-24T03:40:10;15.20;;;3.55;;
33987;SDS011;37428;53.580;-1.666;2023-02-24T03:43:16;17.30;;;3.25;;
33987;SDS011;37428;53.580;-1.666;2023-02-24T03:46:26;13.38;;;3.35;;
33987;SDS011;37428;53.580;-1.666;2023-02-24T03:49:30;11.27;;;4.38;;
33987;SDS011;37428;53.580;-1.666;2023-02-24T03:52:38;8.15;;;2.63;;
33987;SDS011;37428;53.580;-1.666;2023-02-24T03:55:53;19.30;;;3.30;;
33987;SDS011;37428;53.580;-1.666;2023-02-24T04:02:15;10.57;;;2.58;;
33987;SDS011;37428;53.580;-1.666;2023-02-24T04:05:21;14.02;;;3.55;;
33987;SDS011;37428;53.580;-1.666;2023-02-24T04:08:31;19.77;;;2.88;;
33987;SDS011;37428;53.580;-1.666;2023-02-24T04:11:40;20.27;;;3.05;;
33987;SDS011;37428;53.580;-1.666;2023-02-24T04:14:46;14.27;;;2.78;;
33987;SDS011;37428;53.580;-1.666;2023-02-24T04:17:53;13.93;;;2.38;;
33987;SDS011;37428;53.580;-1.666;2023-02-24T04:20:58;13.73;;;2.95;;
33987;SDS011;37428;53.580;-1.666;2023-02-24T04:24:06;9.75;;;2.83;;
33987;SDS011;37428;53.580;-1.666;2023-02-24T04:27:14;12.55;;;2.83;;
33987;SDS011;37428;53.580;-1.666;2023-02-24T04:30:19;17.75;;;3.17;;
33987;SDS011;37428;53.580;-1.666;2023-02-24T04:33:22;15.68;;;2.78;;
33987;SDS011;37428;53.580;-1.666;2023-02-24T04:36:24;17.92;;;2.83;;
33987;SDS011;37428;53.580;-1.666;2023-02-24T04:39:28;14.35;;;3.88;;
33987;SDS011;37428;53.580;-1.666;2023-02-24T04:42:31;17.48;;;3.35;;
33987;SDS011;37428;53.580;-1.666;2023-02-24T04:45:40;13.38;;;2.90;;
33987;SDS011;37428;53.580;-1.666;2023-02-24T04:48:42;10.15;;;2.90;;
33987;SDS011;37428;53.580;-1.666;2023-02-24T04:51:45;15.43;;;2.95;;
33987;SDS011;37428;53.580;-1.666;2023-02-24T04:54:49;16.25;;;3.05;;
33987;SDS011;37428;53.580;-1.666;2023-02-24T04:57:51;11.02;;;3.05;;
33987;SDS011;37428;53.580;-1.666;2023-02-24T05:00:54;15.00;;;3.92;;
33987;SDS011;37428;53.580;-1.666;2023-02-24T05:03:57;18.63;;;4.03;;
33987;SDS011;37428;53.580;-1.666;2023-02-24T05:07:00;13.00;;;2.83;;
33987;SDS011;37428;53.580;-1.666;2023-02-24T05:10:04;12.07;;;3.17;;
33987;SDS011;37428;53.580;-1.666;2023-02-24T05:13:07;16.48;;;3.00;;
33987;SDS011;37428;53.580;-1.666;2023-02-24T05:16:14;6.88;;;2.25;;
33987;SDS011;37428;53.580;-1.666;2023-02-24T05:19:20;11.13;;;2.30;;
33987;SDS011;37428;53.580;-1.666;2023-02-24T05:22:40;15.80;;;3.13;;
33987;SDS011;37428;53.580;-1.666;2023-02-24T05:25:45;11.65;;;1.98;;
33987;SDS011;37428;53.580;-1.666;2023-02-24T05:28:54;10.73;;;2.25;;
33987;SDS011;37428;53.580;-1.666;2023-02-24T05:31:58;12.80;;;3.58;;
33987;SDS011;37428;53.580;-1.666;2023-02-24T05:35:01;9.60;;;2.10;;
33987;SDS011;37428;53.580;-1.666;2023-02-24T05:38:06;8.23;;;1.63;;
33987;SDS011;37428;53.580;-1.666;2023-02-24T05:41:12;13.85;;;2.17;;
33987;SDS011;37428;53.580;-1.666;2023-02-24T05:44:16;7.22;;;1.38;;
33987;SDS011;37428;53.580;-1.666;2023-02-24T05:47:22;10.25;;;1.92;;
33987;SDS011;37428;53.580;-1.666;2023-02-24T05:50:28;5.43;;;1.45;;
33987;SDS011;37428;53.580;-1.666;2023-02-24T05:53:31;5.60;;;1.30;;
33987;SDS011;37428;53.580;-1.666;2023-02-24T05:56:38;9.65;;;1.50;;
33987;SDS011;37428;53.580;-1.666;2023-02-24T05:59:42;6.00;;;1.55;;
33987;SDS011;37428;53.580;-1.666;2023-02-24T06:02:45;3.03;;;1.10;;
33987;SDS011;37428;53.580;-1.666;2023-02-24T06:05:53;6.35;;;1.40;;
33987;SDS011;37428;53.580;-1.666;2023-02-24T06:08:58;9.00;;;1.65;;
33987;SDS011;37428;53.580;-1.666;2023-02-24T06:12:02;4.10;;;1.20;;
33987;SDS011;37428;53.580;-1.666;2023-02-24T06:15:05;9.75;;;1.77;;
33987;SDS011;37428;53.580;-1.666;2023-02-24T06:18:08;12.10;;;2.10;;
33987;SDS011;37428;53.580;-1.666;2023-02-24T06:24:13;6.47;;;1.80;;
33987;SDS011;37428;53.580;-1.666;2023-02-24T06:27:19;15.65;;;3.35;;
33987;SDS011;37428;53.580;-1.666;2023-02-24T06:30:25;18.80;;;1.77;;
33987;SDS011;37428;53.580;-1.666;2023-02-24T06:33:29;20.20;;;3.60;;
33987;SDS011;37428;53.580;-1.666;2023-02-24T06:36:31;11.52;;;2.00;;
33987;SDS011;37428;53.580;-1.666;2023-02-24T06:39:33;7.63;;;1.65;;
33987;SDS011;37428;53.580;-1.666;2023-02-24T06:42:42;15.13;;;2.47;;
33987;SDS011;37428;53.580;-1.666;2023-02-24T06:45:45;16.80;;;2.45;;
33987;SDS011;37428;53.580;-1.666;2023-02-24T06:48:49;13.38;;;3.40;;
33987;SDS011;37428;53.580;-1.666;2023-02-24T06:51:53;8.80;;;2.70;;
33987;SDS011;37428;53.580;-1.666;2023-02-24T06:54:56;15.00;;;3.95;;
33987;SDS011;37428;53.580;-1.666;2023-02-24T06:58:00;13.07;;;2.53;;
33987;SDS011;37428;53.580;-1.666;2023-02-24T07:01:03;12.85;;;2.53;;
33987;SDS011;37428;53.580;-1.666;2023-02-24T07:04:13;15.25;;;2.72;;
33987;SDS011;37428;53.580;-1.666;2023-02-24T07:07:20;17.10;;;3.45;;
33987;SDS011;37428;53.580;-1.666;2023-02-24T07:10:24;13.93;;;2.83;;
33987;SDS011;37428;53.580;-1.666;2023-02-24T07:13:29;15.13;;;2.63;;
33987;SDS011;37428;53.580;-1.666;2023-02-24T07:16:31;14.45;;;2.72;;
33987;SDS011;37428;53.580;-1.666;2023-02-24T07:19:37;14.13;;;2.95;;
33987;SDS011;37428;53.580;-1.666;2023-02-24T07:22:39;12.13;;;2.55;;
33987;SDS011;37428;53.580;-1.666;2023-02-24T07:25:43;13.40;;;2.00;;
33987;SDS011;37428;53.580;-1.666;2023-02-24T07:28:47;14.05;;;2.35;;
33987;SDS011;37428;53.580;-1.666;2023-02-24T07:31:50;14.82;;;2.83;;
33987;SDS011;37428;53.580;-1.666;2023-02-24T07:34:55;10.40;;;2.45;;
33987;SDS011;37428;53.580;-1.666;2023-02-24T07:37:58;14.80;;;2.40;;
33987;SDS011;37428;53.580;-1.666;2023-02-24T07:41:04;12.98;;;2.80;;
33987;SDS011;37428;53.580;-1.666;2023-02-24T07:44:11;15.02;;;2.28;;
33987;SDS011;37428;53.580;-1.666;2023-02-24T07:47:13;12.30;;;2.83;;
33987;SDS011;37428;53.580;-1.666;2023-02-24T07:50:18;11.25;;;2.05;;
33987;SDS011;37428;53.580;-1.666;2023-02-24T07:53:20;10.48;;;2.42;;
33987;SDS011;37428;53.580;-1.666;2023-02-24T07:56:23;14.48;;;2.75;;
33987;SDS011;37428;53.580;-1.666;2023-02-24T07:59:29;11.27;;;3.17;;
33987;SDS011;37428;53.580;-1.666;2023-02-24T08:02:32;19.70;;;3.65;;
33987;SDS011;37428;53.580;-1.666;2023-02-24T08:05:34;10.65;;;2.58;;
33987;SDS011;37428;53.580;-1.666;2023-02-24T08:08:37;13.30;;;2.35;;
33987;SDS011;37428;53.580;-1.666;2023-02-24T08:11:56;13.10;;;2.88;;
33987;SDS011;37428;53.580;-1.666;2023-02-24T08:15:01;13.30;;;2.95;;
33987;SDS011;37428;53.580;-1.666;2023-02-24T08:18:16;10.35;;;2.20;;
33987;SDS011;37428;53.580;-1.666;2023-02-24T08:21:19;13.13;;;3.47;;
33987;SDS011;37428;53.580;-1.666;2023-02-24T08:24:23;15.02;;;2.15;;
33987;SDS011;37428;53.580;-1.666;2023-02-24T08:27:29;10.93;;;2.85;;
33987;SDS011;37428;53.580;-1.666;2023-02-24T08:30:37;14.70;;;3.90;;
33987;SDS011;37428;53.580;-1.666;2023-02-24T08:33:43;11.00;;;2.38;;
33987;SDS011;37428;53.580;-1.666;2023-02-24T08:36:47;7.28;;;1.95;;
33987;SDS011;37428;53.580;-1.666;2023-02-24T08:39:56;10.38;;;3.58;;
33987;SDS011;37428;53.580;-1.666;2023-02-24T08:43:05;12.68;;;2.75;;
33987;SDS011;37428;53.580;-1.666;2023-02-24T08:46:21;14.65;;;2.65;;
33987;SDS011;37428;53.580;-1.666;2023-02-24T08:49:25;13.43;;;1.90;;
33987;SDS011;37428;53.580;-1.666;2023-02-24T08:52:28;10.52;;;2.47;;
33987;SDS011;37428;53.580;-1.666;2023-02-24T08:55:30;16.13;;;2.30;;
33987;SDS011;37428;53.580;-1.666;2023-02-24T08:58:39;13.35;;;2.38;;
33987;SDS011;37428;53.580;-1.666;2023-02-24T09:01:47;12.32;;;2.65;;
33987;SDS011;37428;53.580;-1.666;2023-02-24T09:05:09;10.40;;;2.80;;
33987;SDS011;37428;53.580;-1.666;2023-02-24T09:08:17;7.68;;;1.20;;
33987;SDS011;37428;53.580;-1.666;2023-02-24T09:11:34;7.10;;;1.48;;
33987;SDS011;37428;53.580;-1.666;2023-02-24T09:18:05;5.05;;;0.95;;
33987;SDS011;37428;53.580;-1.666;2023-02-24T09:21:08;8.88;;;1.23;;
33987;SDS011;37428;53.580;-1.666;2023-02-24T09:24:37;9.27;;;1.25;;
33987;SDS011;37428;53.580;-1.666;2023-02-24T09:27:41;6.28;;;0.70;;
33987;SDS011;37428;53.580;-1.666;2023-02-24T09:30:46;3.08;;;0.77;;
33987;SDS011;37428;53.580;-1.666;2023-02-24T09:33:56;3.67;;;1.20;;
33987;SDS011;37428;53.580;-1.666;2023-02-24T09:37:03;2.15;;;1.05;;
33987;SDS011;37428;53.580;-1.666;2023-02-24T09:40:23;5.75;;;1.25;;
33987;SDS011;37428;53.580;-1.666;2023-02-24T09:43:47;3.60;;;0.93;;
33987;SDS011;37428;53.580;-1.666;2023-02-24T09:47:01;3.85;;;0.85;;
33987;SDS011;37428;53.580;-1.666;2023-02-24T09:50:17;5.10;;;1.52;;
33987;SDS011;37428;53.580;-1.666;2023-02-24T09:53:30;7.03;;;1.70;;
33987;SDS011;37428;53.580;-1.666;2023-02-24T09:56:41;4.68;;;1.60;;
33987;SDS011;37428;53.580;-1.666;2023-02-24T09:59:53;5.43;;;1.27;;
33987;SDS011;37428;53.580;-1.666;2023-02-24T10:03:22;6.90;;;1.35;;
33987;SDS011;37428;53.580;-1.666;2023-02-24T10:06:44;5.35;;;1.25;;
33987;SDS011;37428;53.580;-1.666;2023-02-24T10:10:05;2.58;;;1.00;;
33987;SDS011;37428;53.580;-1.666;2023-02-24T10:13:21;8.85;;;1.90;;
33987;SDS011;37428;53.580;-1.666;2023-02-24T10:16:42;13.88;;;1.80;;
33987;SDS011;37428;53.580;-1.666;2023-02-24T10:19:59;8.18;;;1.55;;
33987;SDS011;37428;53.580;-1.666;2023-02-24T10:26:39;10.57;;;2.15;;
33987;SDS011;37428;53.580;-1.666;2023-02-24T10:30:00;8.27;;;1.40;;
33987;SDS011;37428;53.580;-1.666;2023-02-24T10:33:33;7.07;;;1.30;;
33987;SDS011;37428;53.580;-1.666;2023-02-24T10:37:02;6.03;;;1.52;;
33987;SDS011;37428;53.580;-1.666;2023-02-24T10:40:18;10.95;;;1.63;;
33987;SDS011;37428;53.580;-1.666;2023-02-24T10:43:32;12.35;;;2.55;;
33987;SDS011;37428;53.580;-1.666;2023-02-24T10:46:44;10.50;;;2.45;;
33987;SDS011;37428;53.580;-1.666;2023-02-24T10:49:52;8.32;;;1.98;;
33987;SDS011;37428;53.580;-1.666;2023-02-24T10:53:04;9.98;;;1.50;;
33987;SDS011;37428;53.580;-1.666;2023-02-24T10:56:34;5.82;;;1.65;;
33987;SDS011;37428;53.580;-1.666;2023-02-24T10:59:56;14.68;;;2.55;;
33987;SDS011;37428;53.580;-1.666;2023-02-24T11:03:20;10.15;;;2.08;;
33987;SDS011;37428;53.580;-1.666;2023-02-24T11:06:35;11.07;;;2.75;;
33987;SDS011;37428;53.580;-1.666;2023-02-24T11:10:03;10.50;;;2.33;;
33987;SDS011;37428;53.580;-1.666;2023-02-24T11:13:12;6.63;;;2.00;;
33987;SDS011;37428;53.580;-1.666;2023-02-24T11:16:44;7.25;;;1.98;;
33987;SDS011;37428;53.580;-1.666;2023-02-24T11:20:06;10.07;;;2.00;;
33987;SDS011;37428;53.580;-1.666;2023-02-24T11:23:25;8.73;;;2.22;;
33987;SDS011;37428;53.580;-1.666;2023-02-24T11:26:33;8.43;;;2.00;;
33987;SDS011;37428;53.580;-1.666;2023-02-24T11:29:40;10.02;;;2.22;;
33987;SDS011;37428;53.580;-1.666;2023-02-24T11:36:23;18.05;;;2.65;;
33987;SDS011;37428;53.580;-1.666;2023-02-24T11:39:37;24.30;;;3.13;;
33987;SDS011;37428;53.580;-1.666;2023-02-24T11:43:02;12.07;;;3.05;;
33987;SDS011;37428;53.580;-1.666;2023-02-24T11:46:11;10.85;;;1.85;;
33987;SDS011;37428;53.580;-1.666;2023-02-24T11:49:35;9.60;;;2.08;;
33987;SDS011;37428;53.580;-1.666;2023-02-24T11:52:43;12.60;;;2.45;;
33987;SDS011;37428;53.580;-1.666;2023-02-24T11:55:53;6.65;;;1.45;;
33987;SDS011;37428;53.580;-1.666;2023-02-24T11:59:16;11.32;;;2.20;;
33987;SDS011;37428;53.580;-1.666;2023-02-24T12:02:40;10.95;;;2.55;;
33987;SDS011;37428;53.580;-1.666;2023-02-24T12:05:49;15.32;;;2.95;;
33987;SDS011;37428;53.580;-1.666;2023-02-24T12:09:02;11.15;;;2.13;;
33987;SDS011;37428;53.580;-1.666;2023-02-24T12:12:27;9.77;;;2.13;;
33987;SDS011;37428;53.580;-1.666;2023-02-24T12:15:41;7.75;;;1.73;;
33987;SDS011;37428;53.580;-1.666;2023-02-24T12:18:49;15.13;;;3.47;;
33987;SDS011;37428;53.580;-1.666;2023-02-24T12:22:18;13.85;;;3.33;;
33987;SDS011;37428;53.580;-1.666;2023-02-24T12:25:29;10.77;;;2.72;;
33987;SDS011;37428;53.580;-1.666;2023-02-24T12:28:49;13.88;;;3.00;;
33987;SDS011;37428;53.580;-1.666;2023-02-24T12:32:18;16.13;;;2.67;;
33987;SDS011;37428;53.580;-1.666;2023-02-24T12:35:39;18.83;;;3.20;;
33987;SDS011;37428;53.580;-1.666;2023-02-24T12:38:57;9.15;;;2.13;;
33987;SDS011;37428;53.580;-1.666;2023-02-24T12:42:27;10.52;;;2.70;;
33987;SDS011;37428;53.580;-1.666;2023-02-24T12:45:39;12.50;;;2.22;;
33987;SDS011;37428;53.580;-1.666;2023-02-24T12:52:19;7.53;;;2.08;;
33987;SDS011;37428;53.580;-1.666;2023-02-24T12:55:29;10.15;;;2.60;;
33987;SDS011;37428;53.580;-1.666;2023-02-24T12:58:41;13.30;;;2.90;;
33987;SDS011;37428;53.580;-1.666;2023-02-24T13:01:47;10.35;;;2.42;;
33987;SDS011;37428;53.580;-1.666;2023-02-24T13:05:01;13.80;;;2.90;;
33987;SDS011;37428;53.580;-1.666;2023-02-24T13:08:13;8.90;;;2.72;;
33987;SDS011;37428;53.580;-1.666;2023-02-24T13:11:26;13.55;;;2.00;;
33987;SDS011;37428;53.580;-1.666;2023-02-24T13:14:39;10.93;;;3.20;;
33987;SDS011;37428;53.580;-1.666;2023-02-24T13:17:44;8.38;;;2.60;;
33987;SDS011;37428;53.580;-1.666;2023-02-24T13:20:49;9.35;;;1.80;;
33987;SDS011;37428;53.580;-1.666;2023-02-24T13:24:19;9.30;;;2.22;;
33987;SDS011;37428;53.580;-1.666;2023-02-24T13:27:24;15.45;;;2.40;;
33987;SDS011;37428;53.580;-1.666;2023-02-24T13:30:38;8.35;;;2.08;;
33987;SDS011;37428;53.580;-1.666;2023-02-24T13:33:42;7.85;;;1.65;;
33987;SDS011;37428;53.580;-1.666;2023-02-24T13:36:59;8.55;;;1.83;;
33987;SDS011;37428;53.580;-1.666;2023-02-24T13:40:16;6.20;;;1.55;;
33987;SDS011;37428;53.580;-1.666;2023-02-24T13:43:24;8.73;;;1.83;;
33987;SDS011;37428;53.580;-1.666;2023-02-24T13:46:45;6.57;;;1.92;;
33987;SDS011;37428;53.580;-1.666;2023-02-24T13:50:01;5.25;;;1.30;;
33987;SDS011;37428;53.580;-1.666;2023-02-24T13:53:25;6.80;;;1.48;;
33987;SDS011;37428;53.580;-1.666;2023-02-24T13:56:35;6.43;;;1.50;;
33987;SDS011;37428;53.580;-1.666;2023-02-24T13:59:46;7.68;;;2.78;;
33987;SDS011;37428;53.580;-1.666;2023-02-24T14:03:09;7.07;;;1.90;;
33987;SDS011;37428;53.580;-1.666;2023-02-24T14:06:34;13.25;;;2.25;;
33987;SDS011;37428;53.580;-1.666;2023-02-24T14:09:42;10.10;;;1.83;;
33987;SDS011;37428;53.580;-1.666;2023-02-24T14:12:54;8.13;;;1.92;;
33987;SDS011;37428;53.580;-1.666;2023-02-24T14:16:04;11.02;;;2.15;;
33987;SDS011;37428;53.580;-1.666;2023-02-24T14:19:11;8.75;;;1.73;;
33987;SDS011;37428;53.580;-1.666;2023-02-24T14:22:19;8.35;;;2.20;;
33987;SDS011;37428;53.580;-1.666;2023-02-24T14:25:23;6.25;;;1.65;;
33987;SDS011;37428;53.580;-1.666;2023-02-24T14:28:29;11.73;;;2.50;;
33987;SDS011;37428;53.580;-1.666;2023-02-24T14:31:35;11.25;;;2.53;;
33987;SDS011;37428;53.580;-1.666;2023-02-24T14:34:52;11.77;;;2.85;;
33987;SDS011;37428;53.580;-1.666;2023-02-24T14:37:55;8.80;;;1.73;;
33987;SDS011;37428;53.580;-1.666;2023-02-24T14:41:00;12.50;;;2.25;;
33987;SDS011;37428;53.580;-1.666;2023-02-24T14:44:19;11.18;;;1.60;;
33987;SDS011;37428;53.580;-1.666;2023-02-24T14:47:26;9.38;;;2.38;;
33987;SDS011;37428;53.580;-1.666;2023-02-24T14:50:43;10.50;;;1.80;;
33987;SDS011;37428;53.580;-1.666;2023-02-24T14:53:47;4.53;;;1.02;;
33987;SDS011;37428;53.580;-1.666;2023-02-24T14:56:58;5.60;;;1.77;;
33987;SDS011;37428;53.580;-1.666;2023-02-24T15:00:03;8.70;;;2.20;;
33987;SDS011;37428;53.580;-1.666;2023-02-24T15:03:11;7.28;;;2.28;;
33987;SDS011;37428;53.580;-1.666;2023-02-24T15:06:19;3.10;;;1.65;;
33987;SDS011;37428;53.580;-1.666;2023-02-24T15:09:32;5.75;;;1.23;;
33987;SDS011;37428;53.580;-1.666;2023-02-24T15:12:43;3.25;;;0.73;;
33987;SDS011;37428;53.580;-1.666;2023-02-24T15:16:11;3.78;;;0.80;;
33987;SDS011;37428;53.580;-1.666;2023-02-24T15:19:24;4.90;;;0.98;;
33987;SDS011;37428;53.580;-1.666;2023-02-24T15:22:46;1.77;;;0.47;;
33987;SDS011;37428;53.580;-1.666;2023-02-24T15:25:49;7.90;;;1.08;;
33987;SDS011;37428;53.580;-1.666;2023-02-24T15:28:56;5.97;;;1.15;;
33987;SDS011;37428;53.580;-1.666;2023-02-24T15:32:00;5.60;;;1.10;;
33987;SDS011;37428;53.580;-1.666;2023-02-24T15:35:20;7.40;;;1.60;;
33987;SDS011;37428;53.580;-1.666;2023-02-24T15:38:25;8.93;;;2.13;;
33987;SDS011;37428;53.580;-1.666;2023-02-24T15:41:38;7.15;;;1.50;;
33987;SDS011;37428;53.580;-1.666;2023-02-24T15:44:51;3.30;;;1.30;;
33987;SDS011;37428;53.580;-1.666;2023-02-24T15:47:56;7.00;;;1.23;;
33987;SDS011;37428;53.580;-1.666;2023-02-24T15:54:29;5.47;;;1.60;;
33987;SDS011;37428;53.580;-1.666;2023-02-24T15:57:43;8.85;;;2.70;;
33987;SDS011;37428;53.580;-1.666;2023-02-24T16:00:52;6.20;;;1.55;;
33987;SDS011;37428;53.580;-1.666;2023-02-24T16:04:10;8.77;;;1.60;;
33987;SDS011;37428;53.580;-1.666;2023-02-24T16:07:18;7.23;;;1.50;;
33987;SDS011;37428;53.580;-1.666;2023-02-24T16:10:26;5.97;;;1.15;;
33987;SDS011;37428;53.580;-1.666;2023-02-24T16:13:29;5.72;;;1.38;;
33987;SDS011;37428;53.580;-1.666;2023-02-24T16:16:32;10.63;;;1.23;;
33987;SDS011;37428;53.580;-1.666;2023-02-24T16:19:34;8.70;;;1.90;;
33987;SDS011;37428;53.580;-1.666;2023-02-24T16:25:40;8.43;;;1.48;;
33987;SDS011;37428;53.580;-1.666;2023-02-24T16:28:45;7.68;;;1.50;;
33987;SDS011;37428;53.580;-1.666;2023-02-24T16:32:14;8.48;;;2.65;;
33987;SDS011;37428;53.580;-1.666;2023-02-24T16:35:21;7.03;;;2.90;;
33987;SDS011;37428;53.580;-1.666;2023-02-24T16:38:23;11.82;;;3.83;;
33987;SDS011;37428;53.580;-1.666;2023-02-24T16:41:26;12.82;;;3.60;;
33987;SDS011;37428;53.580;-1.666;2023-02-24T16:44:30;14.25;;;4.60;;
33987;SDS011;37428;53.580;-1.666;2023-02-24T16:47:35;9.68;;;4.65;;
33987;SDS011;37428;53.580;-1.666;2023-02-24T16:50:40;13.13;;;3.88;;
33987;SDS011;37428;53.580;-1.666;2023-02-24T16:53:45;10.32;;;2.00;;
33987;SDS011;37428;53.580;-1.666;2023-02-24T16:56:53;11.77;;;1.52;;
33987;SDS011;37428;53.580;-1.666;2023-02-24T16:59:55;5.63;;;1.70;;
33987;SDS011;37428;53.580;-1.666;2023-02-24T17:02:58;3.85;;;1.33;;
33987;SDS011;37428;53.580;-1.666;2023-02-24T17:06:06;5.75;;;1.20;;
33987;SDS011;37428;53.580;-1.666;2023-02-24T17:09:12;8.25;;;1.63;;
33987;SDS011;37428;53.580;-1.666;2023-02-24T17:12:18;11.55;;;2.47;;
33987;SDS011;37428;53.580;-1.666;2023-02-24T17:15:22;6.68;;;2.58;;
33987;SDS011;37428;53.580;-1.666;2023-02-24T17:18:26;10.43;;;2.40;;
33987;SDS011;37428;53.580;-1.666;2023-02-24T17:21:28;9.57;;;2.28;;
33987;SDS011;37428;53.580;-1.666;2023-02-24T17:24:30;6.75;;;2.80;;
33987;SDS011;37428;53.580;-1.666;2023-02-24T17:27:32;8.68;;;2.50;;
33987;SDS011;37428;53.580;-1.666;2023-02-24T17:30:34;6.03;;;1.85;;
33987;SDS011;37428;53.580;-1.666;2023-02-24T17:33:38;5.93;;;1.88;;
33987;SDS011;37428;53.580;-1.666;2023-02-24T17:36:48;13.38;;;1.95;;
33987;SDS011;37428;53.580;-1.666;2023-02-24T17:39:52;7.93;;;1.80;;
33987;SDS011;37428;53.580;-1.666;2023-02-24T17:42:56;5.47;;;1.05;;
33987;SDS011;37428;53.580;-1.666;2023-02-24T17:46:00;10.88;;;1.73;;
33987;SDS011;37428;53.580;-1.666;2023-02-24T17:49:09;10.23;;;1.55;;
33987;SDS011;37428;53.580;-1.666;2023-02-24T17:52:13;10.48;;;1.95;;
33987;SDS011;37428;53.580;-1.666;2023-02-24T17:55:15;7.38;;;2.22;;
33987;SDS011;37428;53.580;-1.666;2023-02-24T17:58:18;6.68;;;1.30;;
33987;SDS011;37428;53.580;-1.666;2023-02-24T18:01:21;6.10;;;2.00;;
33987;SDS011;37428;53.580;-1.666;2023-02-24T18:04:25;7.72;;;2.33;;
33987;SDS011;37428;53.580;-1.666;2023-02-24T18:07:28;10.70;;;5.70;;
33987;SDS011;37428;53.580;-1.666;2023-02-24T18:10:30;6.78;;;3.17;;
33987;SDS011;37428;53.580;-1.666;2023-02-24T18:13:35;11.85;;;4.85;;
33987;SDS011;37428;53.580;-1.666;2023-02-24T18:16:37;7.13;;;3.30;;
33987;SDS011;37428;53.580;-1.666;2023-02-24T18:22:44;7.10;;;1.40;;
33987;SDS011;37428;53.580;-1.666;2023-02-24T18:25:48;2.50;;;0.73;;
33987;SDS011;37428;53.580;-1.666;2023-02-24T18:28:50;5.25;;;2.40;;
33987;SDS011;37428;53.580;-1.666;2023-02-24T18:31:54;16.50;;;8.18;;
33987;SDS011;37428;53.580;-1.666;2023-02-24T18:34:58;8.88;;;4.43;;
33987;SDS011;37428;53.580;-1.666;2023-02-24T18:38:00;14.45;;;9.30;;
33987;SDS011;37428;53.580;-1.666;2023-02-24T18:41:03;9.25;;;3.30;;
33987;SDS011;37428;53.580;-1.666;2023-02-24T18:44:15;5.53;;;1.30;;
33987;SDS011;37428;53.580;-1.666;2023-02-24T18:47:19;3.15;;;1.48;;
33987;SDS011;37428;53.580;-1.666;2023-02-24T18:50:22;8.60;;;1.88;;
33987;SDS011;37428;53.580;-1.666;2023-02-24T18:53:45;7.07;;;0.75;;
33987;SDS011;37428;53.580;-1.666;2023-02-24T18:56:48;17.00;;;5.20;;
33987;SDS011;37428;53.580;-1.666;2023-02-24T18:59:56;8.57;;;1.90;;
33987;SDS011;37428;53.580;-1.666;2023-02-24T19:03:00;7.75;;;1.35;;
33987;SDS011;37428;53.580;-1.666;2023-02-24T19:06:29;11.85;;;6.30;;
33987;SDS011;37428;53.580;-1.666;2023-02-24T19:09:32;9.23;;;1.15;;
33987;SDS011;37428;53.580;-1.666;2023-02-24T19:12:36;8.75;;;1.55;;